METAR Data

Data at: 1014 UTC 25 Mar 2019

METAR for:KLAX (Los Angeles Intl, CA, US)
Text:KLAX 250953Z 08004KT 10SM FEW012 11/09 A3013 RMK AO2 SLP201 T01110094
Temperature: 11.1°C ( 52°F)
Dewpoint: 9.4°C ( 49°F) [RH = 89%]
Pressure (altimeter):30.13 inches Hg (1020.4 mb) [Sea level pressure: 1020.1 mb]
Winds:from the E (80 degrees) at 5 MPH (4 knots; 2.1 m/s)
Visibility:10 or more sm (16+ km)
Ceiling:at least 12,000 feet AGL
Clouds: few clouds at 1200 feet AGL